Main page
METAR-TAF:

METAR-TAF

Airports :

Georgetown Municipal Airport

Georgetown, Texas, United States

latitude: 30-41N, longitude: 097-41W, elevation: 787 ft

Current weather observation

The report was made 26 minutes ago, at 18:56 UTC
Wind 14 mph from the East/Northeast with gusts up to 21 mph
Temperature 88°F
Humidity 63%
Pressure 30.13 in. Hg
Visibility: 10 miles
Scattered clouds at a height of 2600 ft
Broken clouds at a height of 3400 ft
Broken clouds at a height of 4400 ft

METAR: KGTU 201856Z 07012G18KT 10SM SCT026 BKN034 BKN044 31/23 A3013 RMK AO2 SLP197 T03110228

Time: 14:22 (19:22 UTC)


TAF: missing

Weather observations and forecasts of more than 4000 airports (METAR and TAF reports).

The available stations are represented by yellow and red dots on the map.

Hover mouse over dot to see the name of the station.

Then click to see weather observations and forecasts.

To change the map : click on the green buttons with a black cross to zoom in, on the green button with a dash to zoom out, or on the green arrows for adjacent maps.


METAR-TAF: